Time;durP1;ratioP1;P1;durP2;ratioP2;P2;SDS_P1;SDS_P2;PMS_P1;PMS_P2;Temp;Humidity;BMP_temperature;BMP_pressure;BME280_temperature;BME280_humidity;BME280_pressure;Samples;Min_cycle;Max_cycle;Signal;HPM_P1;HPM_P2
2021/10/27 00:00:12;;;;;;;13.70;7.70;;;;;;;5.92;62.64;101182.36;1796159;79;21019;-61
2021/10/27 00:02:45;;;;;;;16.00;8.33;;;;;;;5.88;62.82;101174.61;1796630;79;21482;-63
2021/10/27 00:05:14;;;;;;;14.13;7.33;;;;;;;5.86;62.88;101171.19;1796185;79;21030;-61
2021/10/27 00:07:44;;;;;;;14.78;7.83;;;;;;;5.84;62.89;101169.94;1796470;80;21510;-63
2021/10/27 00:10:15;;;;;;;15.90;7.67;;;;;;;5.83;62.94;101175.53;1709410;84;21245;-62
2021/10/27 00:12:43;;;;;;;15.83;7.25;;;;;;;5.83;63.02;101178.25;1709345;84;21188;-62
2021/10/27 00:15:14;;;;;;;17.05;7.95;;;;;;;5.83;63.25;101173.67;1709441;84;21575;-62
2021/10/27 00:17:44;;;;;;;16.50;7.37;;;;;;;5.87;63.18;101170.18;1709335;84;21339;-61
2021/10/27 00:20:14;;;;;;;18.15;8.10;;;;;;;5.88;63.21;101155.08;1709396;84;21506;-61
2021/10/27 00:22:43;;;;;;;12.95;7.15;;;;;;;5.88;63.37;101163.23;1709314;82;21069;-65
2021/10/27 00:25:11;;;;;;;15.63;7.42;;;;;;;5.87;63.38;101161.52;1709243;84;21491;-62
2021/10/27 00:27:41;;;;;;;14.55;7.70;;;;;;;5.89;63.49;101160.90;1709359;84;21490;-62
2021/10/27 00:30:10;;;;;;;13.48;7.10;;;;;;;5.84;63.58;101158.20;1709282;84;21509;-62
2021/10/27 00:32:40;;;;;;;17.70;7.87;;;;;;;5.80;63.77;101157.65;1711142;84;21077;-61
2021/10/27 00:35:09;;;;;;;21.52;7.78;;;;;;;5.78;63.96;101158.30;1764248;78;21884;-62
2021/10/27 00:37:38;;;;;;;15.43;7.53;;;;;;;5.81;63.97;101153.06;1798613;79;21550;-63
2021/10/27 00:40:08;;;;;;;18.30;7.08;;;;;;;5.82;64.05;101164.30;1798769;78;20998;-61
2021/10/27 00:42:37;;;;;;;17.10;8.15;;;;;;;5.83;64.12;101163.30;1798403;80;21062;-63
2021/10/27 00:45:09;;;;;;;14.58;6.92;;;;;;;5.81;64.18;101162.08;1734947;82;21562;-60
2021/10/27 00:47:38;;;;;;;16.12;8.00;;;;;;;5.80;64.23;101164.95;1733413;83;21027;-61
2021/10/27 00:50:08;;;;;;;16.17;8.28;;;;;;;5.79;64.30;101158.66;1715958;83;21046;-62
2021/10/27 00:52:36;;;;;;;14.83;8.15;;;;;;;5.76;64.38;101153.52;1715482;82;21678;-62
2021/10/27 00:55:08;;;;;;;14.23;6.75;;;;;;;5.74;64.52;101152.80;1715323;82;21081;-64
2021/10/27 00:57:37;;;;;;;18.73;8.10;;;;;;;5.72;64.65;101151.59;1715489;84;21042;-63
2021/10/27 01:00:07;;;;;;;14.43;7.17;;;;;;;5.73;64.85;101151.09;1715173;84;21026;-64
2021/10/27 01:02:36;;;;;;;17.75;7.65;;;;;;;5.71;64.89;101143.58;1715251;83;21065;-64
2021/10/27 01:05:07;;;;;;;16.87;7.47;;;;;;;5.71;64.91;101143.08;1715229;84;21482;-63
2021/10/27 01:07:35;;;;;;;16.85;7.60;;;;;;;5.70;64.99;101144.59;1715413;84;20999;-61
2021/10/27 01:10:07;;;;;;;16.17;8.38;;;;;;;5.69;65.04;101142.37;1715352;83;21031;-62
2021/10/27 01:12:37;;;;;;;12.40;7.15;;;;;;;5.68;65.14;101132.50;1715437;84;21525;-65
2021/10/27 01:15:08;;;;;;;20.08;7.90;;;;;;;5.65;65.47;101136.02;1715814;83;21022;-61
2021/10/27 01:17:38;;;;;;;20.97;8.68;;;;;;;5.63;65.51;101137.53;1736165;82;21034;-62
2021/10/27 01:20:08;;;;;;;15.43;7.67;;;;;;;5.61;65.75;101137.32;1736048;82;21723;-62
2021/10/27 01:22:39;;;;;;;17.40;8.53;;;;;;;5.59;65.81;101140.69;1715709;83;21049;-61
2021/10/27 01:25:10;;;;;;;17.17;8.88;;;;;;;5.56;65.87;101132.83;1735425;83;21067;-63
2021/10/27 01:27:44;;;;;;;15.80;7.87;;;;;;;5.55;66.12;101128.39;1715890;83;21546;-61
2021/10/27 01:30:15;;;;;;;14.00;7.22;;;;;;;5.56;66.19;101127.39;1715568;83;21470;-63
2021/10/27 01:32:45;;;;;;;14.00;7.28;;;;;;;5.60;66.07;101123.38;1715036;84;21193;-62
2021/10/27 01:35:16;;;;;;;15.28;7.58;;;;;;;5.59;66.29;101132.53;1715376;84;21953;-62
2021/10/27 01:37:45;;;;;;;14.90;7.17;;;;;;;5.55;66.45;101132.48;1715318;82;21192;-62
2021/10/27 01:40:16;;;;;;;16.62;7.70;;;;;;;5.54;66.46;101125.33;1715257;83;21129;-62
2021/10/27 01:42:46;;;;;;;17.82;7.50;;;;;;;5.54;66.58;101120.74;1715387;83;21469;-63
2021/10/27 01:45:16;;;;;;;13.93;7.42;;;;;;;5.54;66.68;101118.53;1715093;82;21139;-62
2021/10/27 01:47:46;;;;;;;17.02;7.65;;;;;;;5.56;66.60;101116.52;1710780;83;21587;-61
2021/10/27 01:50:15;;;;;;;13.22;6.58;;;;;;;5.59;66.49;101113.50;1715292;82;21446;-62
2021/10/27 01:52:45;;;;;;;15.48;7.55;;;;;;;5.62;66.60;101110.48;1745614;81;21126;-62
2021/10/27 01:55:15;;;;;;;17.00;7.47;;;;;;;5.62;66.81;101107.77;1736255;81;21589;-62
2021/10/27 01:57:45;;;;;;;13.88;6.78;;;;;;;5.59;66.89;101106.70;1715345;83;21121;-62
2021/10/27 02:00:16;;;;;;;14.85;7.47;;;;;;;5.56;66.98;101100.20;1715307;84;21524;-63
2021/10/27 02:02:46;;;;;;;11.85;6.62;;;;;;;5.56;67.14;101105.64;1715401;82;21050;-63
2021/10/27 02:05:15;;;;;;;14.05;6.60;;;;;;;5.56;67.33;101101.56;1715721;83;21214;-63
2021/10/27 02:07:44;;;;;;;14.43;7.78;;;;;;;5.59;67.33;101113.50;1715228;84;21093;-61
2021/10/27 02:10:13;;;;;;;13.98;6.87;;;;;;;5.64;67.21;101109.34;1715235;84;21168;-62
2021/10/27 02:12:42;;;;;;;16.30;7.15;;;;;;;5.65;67.24;101098.81;1715637;83;21047;-61
2021/10/27 02:15:11;;;;;;;15.83;8.23;;;;;;;5.65;67.36;101100.67;1735625;81;21121;-63
2021/10/27 02:17:40;;;;;;;14.83;7.70;;;;;;;5.60;67.49;101105.20;1735816;82;21087;-61
2021/10/27 02:20:10;;;;;;;14.07;7.45;;;;;;;5.61;67.58;101103.34;1715794;83;21058;-62
2021/10/27 02:22:40;;;;;;;18.10;7.30;;;;;;;5.59;67.59;101102.63;1715640;82;21457;-62
2021/10/27 02:25:09;;;;;;;13.43;7.25;;;;;;;5.57;67.71;101102.78;1715018;84;21349;-63
2021/10/27 02:27:40;;;;;;;17.32;7.42;;;;;;;5.59;67.69;101105.34;1715442;83;21030;-62
2021/10/27 02:30:11;;;;;;;14.25;7.08;;;;;;;5.58;67.75;101111.29;1715415;82;21524;-62
2021/10/27 02:32:40;;;;;;;13.78;7.60;;;;;;;5.58;67.77;101106.36;1715382;83;21050;-62
2021/10/27 02:35:09;;;;;;;14.15;7.35;;;;;;;5.55;67.94;101101.22;1715439;84;21026;-62
2021/10/27 02:37:37;;;;;;;11.40;6.75;;;;;;;5.58;67.93;101100.92;1736155;82;21058;-62
2021/10/27 02:40:08;;;;;;;15.00;7.28;;;;;;;5.56;67.93;101103.78;1736379;83;21998;-61
2021/10/27 02:42:39;;;;;;;15.85;7.80;;;;;;;5.56;67.93;101097.48;1705150;84;21064;-63
2021/10/27 02:45:11;;;;;;;13.48;7.60;;;;;;;5.58;68.02;101090.05;1737206;81;21157;-63
2021/10/27 02:47:42;;;;;;;12.37;6.60;;;;;;;5.59;68.14;101093.97;1713260;83;21173;-63
2021/10/27 02:50:12;;;;;;;14.13;6.95;;;;;;;5.60;68.22;101092.97;1743837;81;21039;-62
2021/10/27 02:52:48;;;;;;;13.85;5.95;;;;;;;5.61;68.21;101089.75;1738621;82;21070;-62
2021/10/27 02:55:17;;;;;;;14.68;7.17;;;;;;;5.64;68.32;101089.45;1740044;82;21517;-64
2021/10/27 02:57:47;;;;;;;13.38;7.03;;;;;;;5.62;68.37;101094.17;1725760;81;21499;-62
2021/10/27 03:00:16;;;;;;;12.93;6.62;;;;;;;5.64;68.38;101090.30;1744842;81;21019;-63
2021/10/27 03:02:45;;;;;;;11.48;6.70;;;;;;;5.65;68.46;101093.88;1744049;82;21094;-62
2021/10/27 03:05:14;;;;;;;11.63;7.05;;;;;;;5.64;68.68;101090.80;1744631;81;21546;-61
2021/10/27 03:07:44;;;;;;;12.78;7.03;;;;;;;5.56;69.03;101083.90;1738421;82;21173;-61
2021/10/27 03:10:13;;;;;;;13.22;6.75;;;;;;;5.54;69.10;101087.27;1744656;80;21510;-62
2021/10/27 03:12:43;;;;;;;13.32;7.35;;;;;;;5.56;69.15;101075.75;1744430;82;21020;-61
2021/10/27 03:15:13;;;;;;;11.83;6.30;;;;;;;5.59;69.22;101080.88;1739281;81;21485;-61
2021/10/27 03:17:42;;;;;;;13.58;6.60;;;;;;;5.56;69.28;101083.39;1744444;82;21549;-62
2021/10/27 03:20:11;;;;;;;11.35;6.58;;;;;;;5.60;69.20;101083.45;1738812;82;21137;-61
2021/10/27 03:22:40;;;;;;;13.20;6.72;;;;;;;5.61;69.20;101087.88;1740379;82;21093;-63
2021/10/27 03:25:09;;;;;;;15.48;7.30;;;;;;;5.60;69.25;101082.59;1740512;82;21023;-61
2021/10/27 03:27:40;;;;;;;13.78;7.08;;;;;;;5.56;69.36;101079.32;1725677;82;21007;-63
2021/10/27 03:30:10;;;;;;;15.65;7.28;;;;;;;5.54;69.43;101071.81;1740353;82;21472;-62
2021/10/27 03:32:40;;;;;;;14.98;7.53;;;;;;;5.52;69.57;101071.61;1740697;82;21090;-62
2021/10/27 03:35:09;;;;;;;15.53;7.05;;;;;;;5.52;69.59;101071.61;1724936;82;20998;-62
2021/10/27 03:37:38;;;;;;;13.45;7.22;;;;;;;5.52;69.63;101068.89;1740317;82;21075;-63
2021/10/27 03:40:09;;;;;;;12.50;6.58;;;;;;;5.48;69.76;101072.91;1740253;82;21514;-62
2021/10/27 03:42:38;;;;;;;10.72;6.65;;;;;;;5.43;69.97;101073.36;1740853;82;21087;-64
2021/10/27 03:45:07;;;;;;;13.45;8.60;;;;;;;5.38;70.26;101068.37;1743214;81;21043;-64
2021/10/27 03:47:36;;;;;;;13.95;8.73;;;;;;;5.35;70.40;101065.95;1740769;82;21010;-64
2021/10/27 03:50:08;;;;;;;19.30;9.75;;;;;;;5.38;70.45;101062.94;1744052;81;21166;-63
2021/10/27 03:52:37;;;;;;;16.52;9.58;;;;;;;5.41;70.37;101065.35;1771125;81;21015;-62
2021/10/27 03:55:07;;;;;;;14.23;8.98;;;;;;;5.44;70.34;101060.63;1764747;81;21126;-62
2021/10/27 03:57:36;;;;;;;17.07;9.10;;;;;;;5.44;70.37;101054.69;1763509;81;21516;-63
2021/10/27 04:00:07;;;;;;;15.32;9.13;;;;;;;5.44;70.38;101060.63;1764547;80;21141;-62
2021/10/27 04:02:39;;;;;;;20.30;12.43;;;;;;;5.44;70.39;101070.14;1764781;81;21055;-63
2021/10/27 04:05:09;;;;;;;22.60;12.90;;;;;;;5.46;70.31;101062.69;1764654;81;21604;-64
2021/10/27 04:07:38;;;;;;;16.10;9.55;;;;;;;5.48;70.26;101063.41;1764470;81;21016;-64
2021/10/27 04:10:11;;;;;;;18.25;8.80;;;;;;;5.47;70.23;101052.17;1764447;80;21134;-63
2021/10/27 04:12:41;;;;;;;13.30;7.35;;;;;;;5.45;70.29;101064.55;1764820;81;21071;-63
2021/10/27 04:15:11;;;;;;;12.80;7.33;;;;;;;5.45;70.34;101054.19;1764462;81;21055;-63
2021/10/27 04:17:41;;;;;;;15.98;7.85;;;;;;;5.39;70.38;101052.92;1743511;81;21036;-64
2021/10/27 04:20:10;;;;;;;17.30;7.92;;;;;;;5.37;70.41;101046.27;1764322;81;21036;-63
2021/10/27 04:22:40;;;;;;;13.48;8.60;;;;;;;5.40;70.38;101050.05;1765615;80;21423;-64
2021/10/27 04:25:09;;;;;;;16.45;9.80;;;;;;;5.43;70.46;101061.13;1764570;81;21468;-64
2021/10/27 04:27:38;;;;;;;16.30;9.48;;;;;;;5.35;70.63;101056.94;1764911;81;21499;-66
2021/10/27 04:30:08;;;;;;;17.75;9.90;;;;;;;5.28;70.83;101058.03;1764975;81;21146;-63
2021/10/27 04:32:37;;;;;;;19.12;10.43;;;;;;;5.28;70.86;101058.03;1764637;80;21067;-64
2021/10/27 04:35:08;;;;;;;17.62;11.00;;;;;;;5.25;70.89;101048.81;1764368;81;21462;-63
2021/10/27 04:37:42;;;;;;;15.32;10.08;;;;;;;5.27;70.98;101060.90;1764719;81;21087;-64
2021/10/27 04:40:14;;;;;;;19.90;10.65;;;;;;;5.26;71.04;101061.91;1764835;80;21495;-65
2021/10/27 04:42:43;;;;;;;18.92;11.43;;;;;;;5.25;71.10;101058.83;1764611;81;21059;-64
2021/10/27 04:45:12;;;;;;;21.42;11.60;;;;;;;5.24;71.14;101064.77;1754927;80;21031;-65
2021/10/27 04:47:44;;;;;;;17.55;10.03;;;;;;;5.21;71.17;101066.42;1746052;82;20975;-63
2021/10/27 04:50:14;;;;;;;17.12;9.58;;;;;;;5.15;71.37;101058.82;1745720;81;21618;-63
2021/10/27 04:52:43;;;;;;;15.90;8.33;;;;;;;5.12;71.50;101063.19;1745854;82;21742;-63
2021/10/27 04:55:14;;;;;;;14.95;8.10;;;;;;;5.12;71.54;101069.98;1745871;82;21056;-64
2021/10/27 04:57:43;;;;;;;16.80;9.48;;;;;;;5.11;71.62;101070.98;1745795;81;21121;-62
2021/10/27 05:00:13;;;;;;;16.57;8.43;;;;;;;5.09;71.63;101075.20;1745634;82;21486;-64
2021/10/27 05:02:43;;;;;;;14.28;7.45;;;;;;;5.09;71.68;101075.70;1745737;82;21524;-63
2021/10/27 05:05:12;;;;;;;15.30;7.70;;;;;;;5.10;71.72;101078.27;1745719;81;21462;-63
2021/10/27 05:07:43;;;;;;;18.25;7.80;;;;;;;5.07;71.71;101077.70;1745867;81;21442;-63
2021/10/27 05:10:13;;;;;;;14.90;8.48;;;;;;;5.02;71.81;101071.86;1745721;82;21065;-63
2021/10/27 05:12:42;;;;;;;16.67;8.70;;;;;;;5.00;71.99;101069.28;1745801;82;21034;-64
2021/10/27 05:15:11;;;;;;;25.52;13.05;;;;;;;4.99;72.07;101074.86;1746008;82;21414;-62
2021/10/27 05:17:40;;;;;;;19.65;12.00;;;;;;;4.95;72.07;101077.02;1745825;81;21018;-63
2021/10/27 05:20:10;;;;;;;20.10;11.12;;;;;;;4.96;72.08;101076.52;1745760;82;21018;-64
2021/10/27 05:22:38;;;;;;;21.33;11.22;;;;;;;4.97;72.06;101083.66;1745668;82;21022;-64
2021/10/27 05:25:09;;;;;;;24.87;12.70;;;;;;;4.94;72.12;101071.73;1745897;82;21414;-64
2021/10/27 05:27:38;;;;;;;18.65;11.22;;;;;;;4.90;72.27;101082.02;1745497;82;21041;-65
2021/10/27 05:30:07;;;;;;;18.62;10.18;;;;;;;4.91;72.35;101077.45;1745626;82;21049;-65
2021/10/27 05:32:36;;;;;;;18.17;9.53;;;;;;;4.90;72.36;101081.16;1745561;82;21498;-65
2021/10/27 05:35:05;;;;;;;20.10;11.28;;;;;;;4.92;72.37;101079.16;1745762;82;21053;-64
2021/10/27 05:37:34;;;;;;;20.17;10.40;;;;;;;4.93;72.36;101081.73;1745555;81;21034;-64
2021/10/27 05:40:04;;;;;;;21.97;10.32;;;;;;;4.95;72.38;101080.23;1745657;82;21042;-64
2021/10/27 05:42:35;;;;;;;17.45;9.10;;;;;;;4.93;72.43;101079.52;1745790;82;21018;-64
2021/10/27 05:45:05;;;;;;;28.62;8.88;;;;;;;4.91;72.48;101078.80;1743524;82;21030;-63
2021/10/27 05:47:34;;;;;;;16.02;8.90;;;;;;;4.92;72.48;101091.37;1738370;81;21427;-63
2021/10/27 05:50:23;;;;;;;19.90;8.53;;;;;;;4.91;72.57;101085.59;1738715;81;21153;-64
2021/10/27 05:55:36;;;;;;;;;;;;;;;4.88;72.81;101095.39;1751395;81;21026;-64
2021/10/27 05:58:06;;;;;;;14.35;8.05;;;;;;;4.90;72.82;101096.95;1748538;82;20257;-64
2021/10/27 06:00:35;;;;;;;28.45;10.20;;;;;;;4.94;72.81;101089.38;1742317;82;21062;-64
2021/10/27 06:03:04;;;;;;;21.82;10.60;;;;;;;4.96;72.78;101105.88;1742592;82;21517;-63
2021/10/27 06:05:34;;;;;;;12.37;7.47;;;;;;;4.98;72.75;101109.31;1734860;83;21495;-64
2021/10/27 06:08:04;;;;;;;22.42;9.38;;;;;;;5.01;72.69;101100.02;1767046;80;21023;-65
2021/10/27 06:10:33;;;;;;;25.82;10.80;;;;;;;5.00;72.65;101096.45;1742451;82;21440;-64
2021/10/27 06:13:06;;;;;;;28.38;14.33;;;;;;;5.02;72.59;101090.37;1742538;82;21015;-64
2021/10/27 06:15:35;;;;;;;24.90;16.30;;;;;;;5.07;72.56;101094.86;1742781;82;21042;-64
2021/10/27 06:18:06;;;;;;;24.82;13.83;;;;;;;5.09;72.50;101096.08;1748905;81;21073;-64
2021/10/27 06:20:35;;;;;;;18.57;10.35;;;;;;;5.10;72.43;101093.71;1748808;81;21088;-64
2021/10/27 06:23:04;;;;;;;20.00;10.65;;;;;;;5.09;72.42;101102.86;1735384;83;21200;-63
2021/10/27 06:25:33;;;;;;;21.95;11.33;;;;;;;5.08;72.49;101110.16;1715303;82;21175;-64
2021/10/27 06:28:10;;;;;;;16.67;8.63;;;;;;;5.15;72.46;101110.43;1748450;81;21458;-64
2021/10/27 06:30:51;;;;;;;15.15;8.65;;;;;;;5.21;72.33;101111.74;1748594;82;21497;-64
2021/10/27 06:36:18;;;;;;;21.37;9.25;;;;;;;5.22;72.20;101110.74;1726938;81;21546;-64
2021/10/27 06:47:03;;;;;;;17.98;8.78;;;;;;;5.40;71.87;101126.64;1708892;82;21007;-65
2021/10/27 06:49:33;;;;;;;19.35;10.28;;;;;;;5.38;71.86;101123.22;1725129;82;21133;-64
2021/10/27 06:52:04;;;;;;;17.85;9.63;;;;;;;5.42;71.84;101116.48;1724887;83;21046;-63
2021/10/27 06:54:33;;;;;;;21.50;10.25;;;;;;;5.47;71.78;101112.83;1715319;83;21122;-64
2021/10/27 06:57:05;;;;;;;19.55;10.38;;;;;;;5.56;71.64;101102.93;1715763;82;21130;-63
2021/10/27 06:59:38;;;;;;;30.75;19.02;;;;;;;5.63;71.43;101088.59;1724780;83;21018;-63
2021/10/27 07:04:52;;;;;;;19.85;13.35;;;;;;;5.73;71.13;101081.75;1724906;83;21026;-65
2021/10/27 07:15:32;;;;;;;24.02;12.25;;;;;;;5.94;70.30;101084.30;1715306;83;21035;-65
2021/10/27 07:17:58;;;;;;;21.87;11.53;;;;;;;6.03;70.34;101093.77;1731018;83;21008;-64
2021/10/27 07:20:28;;;;;;;17.92;9.75;;;;;;;6.12;70.04;101081.11;1723450;83;21129;-65
2021/10/27 07:23:00;;;;;;;20.00;11.85;;;;;;;6.20;69.81;101079.84;1715171;84;21102;-64
2021/10/27 07:25:32;;;;;;;20.68;10.53;;;;;;;6.26;69.56;101075.66;1715957;83;21129;-64
2021/10/27 07:27:59;;;;;;;17.95;9.65;;;;;;;6.32;69.25;101088.65;1715185;84;21137;-63
2021/10/27 07:30:28;;;;;;;23.50;9.48;;;;;;;6.41;69.02;101080.92;1730777;83;21060;-65
2021/10/27 07:32:58;;;;;;;13.60;7.95;;;;;;;6.63;68.79;101085.95;1729391;82;21094;-64
2021/10/27 07:35:33;;;;;;;18.55;8.75;;;;;;;6.96;67.80;101085.73;1720630;82;21046;-65
2021/10/27 07:40:47;;;;;;;16.15;8.23;;;;;;;7.68;66.28;101061.87;1720887;83;21026;-65
2021/10/27 07:43:21;;;;;;;17.50;9.73;;;;;;;8.15;64.78;101070.97;1720467;82;21034;-66
2021/10/27 07:45:50;;;;;;;17.95;8.30;;;;;;;8.60;63.76;101064.30;1730533;81;21089;-64
2021/10/27 07:48:19;;;;;;;19.27;8.65;;;;;;;9.02;62.19;101063.63;1756511;82;21122;-63
2021/10/27 07:50:48;;;;;;;15.18;9.00;;;;;;;9.36;60.51;101066.20;1756400;82;21078;-64
2021/10/27 07:53:18;;;;;;;20.23;9.45;;;;;;;9.61;59.79;101066.14;1756406;82;21038;-64
2021/10/27 07:55:52;;;;;;;19.55;9.53;;;;;;;9.88;58.72;101064.37;1756617;82;21124;-64
2021/10/27 07:58:22;;;;;;;18.52;10.35;;;;;;;10.18;57.79;101065.43;1756737;82;21466;-64
2021/10/27 08:00:53;;;;;;;17.15;8.90;;;;;;;10.46;57.18;101066.70;1756478;82;20999;-65
2021/10/27 08:03:23;;;;;;;20.48;11.50;;;;;;;10.74;56.02;101066.17;1756418;81;21538;-63
2021/10/27 08:05:52;;;;;;;15.30;9.50;;;;;;;10.89;55.32;101060.23;1756630;81;20999;-65
2021/10/27 08:08:22;;;;;;;23.87;9.25;;;;;;;10.99;54.28;101056.71;1756145;82;21058;-65
2021/10/27 08:10:52;;;;;;;17.37;8.53;;;;;;;10.97;54.11;101050.56;1756304;82;21850;-65
2021/10/27 08:13:24;;;;;;;16.23;8.75;;;;;;;10.96;53.95;101043.89;1756545;82;21446;-64
2021/10/27 08:15:54;;;;;;;23.18;9.35;;;;;;;10.94;53.78;101045.45;1756761;82;21150;-64
2021/10/27 08:18:22;;;;;;;18.12;9.15;;;;;;;10.94;53.93;101050.08;1756480;82;21470;-65
2021/10/27 08:20:53;;;;;;;27.35;11.43;;;;;;;10.93;53.55;101048.38;1756210;82;21471;-70
2021/10/27 08:23:26;;;;;;;20.08;8.65;;;;;;;10.86;53.54;101052.89;1756528;81;21533;-60
2021/10/27 08:26:09;;;;;;;15.32;8.48;;;;;;;10.79;54.05;101052.77;1726584;83;21189;-61
2021/10/27 08:28:41;;;;;;;16.15;9.00;;;;;;;10.74;53.91;101051.95;1726706;83;21038;-61
2021/10/27 08:34:03;;;;;;;16.67;8.70;;;;;;;10.62;54.18;101056.66;1726292;83;21587;-61
2021/10/27 08:36:20;;;;;;;18.70;9.40;;;;;;;10.54;53.93;101053.47;1726610;83;21159;-60
2021/10/27 08:39:00;;;;;;;17.55;9.38;;;;;;;10.47;54.13;101056.59;1726465;83;21574;-61
2021/10/27 08:44:28;;;;;;;17.73;8.95;;;;;;;10.38;54.34;101063.13;1754747;81;21026;-63
2021/10/27 08:47:14;;;;;;;23.42;11.70;;;;;;;10.30;54.58;101064.03;1737707;80;21684;-63
2021/10/27 08:49:44;;;;;;;21.25;10.03;;;;;;;10.27;54.88;101063.02;1721190;83;21058;-65
2021/10/27 08:52:14;;;;;;;38.15;11.25;;;;;;;10.29;54.72;101063.69;1718222;83;21152;-64
2021/10/27 08:54:43;;;;;;;31.30;9.35;;;;;;;10.33;54.67;101071.88;1718020;83;21576;-63
2021/10/27 08:57:13;;;;;;;16.95;8.98;;;;;;;10.35;54.00;101070.34;1717641;83;21552;-63
2021/10/27 08:59:48;;;;;;;18.45;8.50;;;;;;;10.32;54.15;101067.95;1721943;81;21110;-62
2021/10/27 09:36:13;;;;;;;18.50;10.20;;;;;;;10.29;54.24;101041.78;1638312;86;21050;-60
2021/10/27 10:06:30;;;;;;;22.85;11.78;;;;;;;10.60;52.78;101038.19;1730460;82;21015;-64
2021/10/27 10:09:00;;;;;;;21.12;11.03;;;;;;;10.65;52.45;101032.48;1713528;84;21220;-61
2021/10/27 10:11:30;;;;;;;23.15;9.78;;;;;;;10.74;52.93;101031.39;1686031;83;21042;-62
2021/10/27 10:14:06;;;;;;;22.90;9.68;;;;;;;10.84;52.28;101027.02;1714045;84;21035;-62
2021/10/27 10:16:43;;;;;;;19.60;9.83;;;;;;;10.89;51.80;101030.07;1730198;82;21485;-61
2021/10/27 10:19:19;;;;;;;21.35;10.53;;;;;;;10.90;51.67;101024.06;1717954;83;21024;-61
2021/10/27 10:21:51;;;;;;;19.82;9.40;;;;;;;10.92;51.92;101030.22;1721099;83;21450;-61
2021/10/27 10:24:27;;;;;;;25.25;9.93;;;;;;;10.94;51.83;101023.51;1728155;83;21051;-62
2021/10/27 10:30:05;;;;;;;23.20;10.05;;;;;;;10.99;51.66;101027.92;1684288;85;21044;-63
2021/10/27 10:32:36;;;;;;;18.37;9.83;;;;;;;11.02;51.46;101031.66;1694127;84;21052;-61
2021/10/27 10:35:15;;;;;;;22.65;10.70;;;;;;;11.02;51.67;101033.03;1666963;86;21181;-61
2021/10/27 10:38:05;;;;;;;23.22;10.50;;;;;;;11.03;51.68;101033.89;1691959;84;21525;-61
2021/10/27 10:40:48;;;;;;;24.47;12.20;;;;;;;10.99;51.65;101029.29;1685626;84;21045;-61
2021/10/27 10:43:27;;;;;;;24.92;10.43;;;;;;;10.97;51.95;101033.26;1686280;84;21550;-61
2021/10/27 11:24:01;;;;;;;23.30;11.40;;;;;;;10.82;52.84;101029.10;1761668;81;20183;-58
2021/10/27 11:37:38;;;;;;;;;;;;;;;10.86;52.96;101030.95;1729294;82;21047;-62
2021/10/27 11:40:39;;;;;;;25.55;12.28;;;;;;;10.85;52.96;101036.11;1730043;83;20273;-61
2021/10/27 11:48:50;;;;;;;29.07;11.93;;;;;;;10.83;53.39;101030.80;1739945;81;21211;-59
2021/10/27 11:51:14;;;;;;;24.57;12.30;;;;;;;10.87;53.89;101031.29;1735844;82;21487;-62
2021/10/27 11:53:45;;;;;;;24.77;12.60;;;;;;;10.89;53.67;101039.66;1723554;82;21510;-62
2021/10/27 11:56:17;;;;;;;30.17;13.85;;;;;;;10.90;53.47;101037.77;1740046;81;21033;-60
2021/10/27 11:58:48;;;;;;;29.25;13.50;;;;;;;10.86;53.61;101038.66;1739496;81;21045;-62
2021/10/27 12:01:40;;;;;;;22.15;12.58;;;;;;;10.85;53.81;101042.95;1695038;84;21596;-62
2021/10/27 12:04:06;;;;;;;26.65;13.03;;;;;;;10.84;53.92;101044.84;1759083;81;20980;-62
2021/10/27 12:07:02;;;;;;;23.42;13.05;;;;;;;10.85;53.92;101034.73;1741715;82;21086;-61
2021/10/27 12:09:43;;;;;;;30.15;14.35;;;;;;;10.84;54.06;101028.39;1747969;81;21185;-62
2021/10/27 12:17:59;;;;;;;27.93;13.38;;;;;;;10.84;55.30;101032.51;1748615;82;21308;-62
2021/10/27 12:20:41;;;;;;;29.37;14.73;;;;;;;10.79;55.62;101033.06;1741870;81;21464;-60
2021/10/27 12:23:20;;;;;;;32.05;13.65;;;;;;;10.75;55.96;101044.06;1717016;82;21059;-62
2021/10/27 12:25:52;;;;;;;28.23;13.88;;;;;;;10.74;56.07;101042.88;1726174;82;21054;-60
2021/10/27 12:28:30;;;;;;;32.88;14.05;;;;;;;10.76;56.38;101050.39;1738582;79;21118;-61
2021/10/27 12:33:51;;;;;;;28.52;14.43;;;;;;;10.77;56.52;101051.58;1696930;84;21506;-62
2021/10/27 12:36:30;;;;;;;27.93;13.20;;;;;;;10.76;56.90;101057.25;1737417;81;21081;-59
2021/10/27 12:39:24;;;;;;;30.48;12.90;;;;;;;10.73;56.98;101054.88;1735568;82;21600;-61
2021/10/27 12:42:02;;;;;;;26.87;13.48;;;;;;;10.69;56.99;101051.64;1719359;82;21427;-62
2021/10/27 12:44:52;;;;;;;29.32;13.98;;;;;;;10.73;58.17;101055.73;1752113;81;21043;-61
2021/10/27 12:47:29;;;;;;;27.65;14.47;;;;;;;10.78;58.33;101051.91;1765905;80;21109;-62
2021/10/27 12:50:14;;;;;;;25.80;11.90;;;;;;;10.76;58.47;101049.02;1737243;82;21031;-59
2021/10/27 12:52:58;;;;;;;28.45;13.03;;;;;;;10.79;60.53;101056.88;1728997;81;21524;-60
2021/10/27 12:55:34;;;;;;;30.12;13.58;;;;;;;10.85;59.53;101066.26;1752106;81;21014;-61
2021/10/27 12:58:17;;;;;;;26.87;11.80;;;;;;;10.85;59.42;101056.66;1773451;81;21439;-61
2021/10/27 13:00:56;;;;;;;21.75;11.90;;;;;;;10.82;59.62;101067.48;1780337;80;20994;-63
2021/10/27 13:09:13;;;;;;;36.45;16.20;;;;;;;10.63;60.83;101075.67;1730258;82;21076;-62
2021/10/27 13:30:14;;;;;;;25.27;11.18;;;;;;;10.46;60.85;101087.25;1740592;82;21024;-63
2021/10/27 13:32:51;;;;;;;30.02;12.73;;;;;;;10.44;60.93;101090.69;1772988;81;21078;-62
2021/10/27 13:35:14;;;;;;;28.20;13.50;;;;;;;10.42;60.92;101091.38;1752743;81;21651;-61
2021/10/27 13:37:45;;;;;;;29.40;12.93;;;;;;;10.41;60.84;101093.78;1740985;82;21031;-61
2021/10/27 13:40:15;;;;;;;28.02;13.10;;;;;;;10.42;60.78;101096.02;1773027;80;21471;-62
2021/10/27 13:43:01;;;;;;;27.27;13.58;;;;;;;10.44;60.76;101098.05;1740846;82;21028;-62
2021/10/27 13:45:36;;;;;;;28.17;13.75;;;;;;;10.39;60.68;101104.04;1773291;81;21458;-62
2021/10/27 13:59:19;;;;;;;31.27;14.70;;;;;;;10.21;61.75;101125.36;1703820;83;21059;-61
2021/10/27 14:07:39;;;;;;;25.90;11.50;;;;;;;10.03;62.69;101131.04;1722403;82;21067;-62
2021/10/27 14:13:33;;;;;;;24.15;12.05;;;;;;;9.99;62.92;101143.89;1740892;82;21035;-59
2021/10/27 14:47:23;;;;;;;30.02;13.62;;;;;;;9.88;63.27;101162.91;1740213;82;21533;-62
2021/10/27 14:59:08;;;;;;;26.05;12.90;;;;;;;9.79;63.85;101173.02;1731058;82;21073;-62
2021/10/27 15:20:50;;;;;;;26.48;11.80;;;;;;;9.74;64.47;101185.48;1724468;82;21575;-63
2021/10/27 15:23:36;;;;;;;23.70;10.25;;;;;;;9.71;64.77;101195.41;1740598;82;21011;-63
2021/10/27 15:28:51;;;;;;;24.10;10.70;;;;;;;9.77;64.82;101201.08;1740353;82;21639;-62
2021/10/27 15:31:37;;;;;;;20.75;10.45;;;;;;;9.78;64.83;101197.31;1740160;82;21039;-61
2021/10/27 15:51:08;;;;;;;21.02;11.70;;;;;;;9.87;64.71;101204.14;1741510;80;21177;-60
2021/10/27 15:52:45;;;;;;;25.08;11.28;;;;;;;9.90;64.91;101201.91;1716273;82;21540;-62
2021/10/27 15:55:16;;;;;;;20.95;11.63;;;;;;;9.93;64.77;101210.30;1721745;81;21030;-61
2021/10/27 15:57:45;;;;;;;24.77;11.60;;;;;;;9.93;64.62;101208.92;1676761;85;21565;-62
2021/10/27 16:00:16;;;;;;;21.50;10.68;;;;;;;9.93;64.65;101209.78;1688973;84;21055;-61
2021/10/27 16:02:44;;;;;;;21.73;10.45;;;;;;;9.91;64.67;101206.87;1723815;83;21107;-62
2021/10/27 16:05:14;;;;;;;24.87;10.15;;;;;;;9.90;64.69;101216.97;1724459;83;21038;-61
2021/10/27 16:07:44;;;;;;;25.57;11.00;;;;;;;9.89;64.76;101214.41;1699974;83;21549;-62
2021/10/27 16:10:16;;;;;;;21.75;10.72;;;;;;;9.87;64.82;101217.31;1702686;84;21035;-61
2021/10/27 16:12:45;;;;;;;26.30;10.98;;;;;;;9.87;64.86;101212.36;1687864;84;21104;-61
2021/10/27 16:15:24;;;;;;;22.77;11.35;;;;;;;9.87;65.10;101209.63;1686837;85;21165;-63
2021/10/27 16:17:47;;;;;;;23.27;11.63;;;;;;;9.89;64.99;101217.14;1686470;85;21044;-61
2021/10/27 16:20:16;;;;;;;20.50;11.10;;;;;;;9.92;64.93;101216.28;1677502;85;21763;-61
2021/10/27 16:22:45;;;;;;;23.30;10.98;;;;;;;9.96;64.94;101214.91;1670482;85;21051;-61